createdAt,value
2023-03-26T00:01:35.373Z,100.00
2023-03-26T00:04:03.840Z,100.00
2023-03-26T00:06:34.044Z,100.00
2023-03-26T00:09:01.849Z,100.00
2023-03-26T00:11:29.797Z,100.00
2023-03-26T00:13:58.186Z,100.00
2023-03-26T00:16:29.541Z,100.00
2023-03-26T00:18:57.791Z,100.00
2023-03-26T00:21:27.411Z,100.00
2023-03-26T00:24:00.686Z,100.00
2023-03-26T00:26:28.427Z,100.00
2023-03-26T00:28:55.651Z,100.00
2023-03-26T00:31:23.079Z,100.00
2023-03-26T00:33:52.323Z,100.00
2023-03-26T00:36:19.626Z,100.00
2023-03-26T00:38:47.542Z,100.00
2023-03-26T00:41:17.546Z,100.00
2023-03-26T00:43:46.432Z,100.00
2023-03-26T00:46:17.454Z,100.00
2023-03-26T00:48:46.346Z,100.00
2023-03-26T00:51:15.981Z,100.00
2023-03-26T00:53:45.401Z,100.00
2023-03-26T00:56:13.195Z,100.00
2023-03-26T00:58:41.470Z,100.00
2023-03-26T01:01:12.408Z,100.00
2023-03-26T01:03:42.722Z,100.00
2023-03-26T01:06:34.038Z,100.00
2023-03-26T01:09:23.645Z,99.87
2023-03-26T01:11:51.080Z,100.00
2023-03-26T01:14:23.266Z,98.45
2023-03-26T01:16:56.957Z,99.38
2023-03-26T01:19:44.457Z,99.02
2023-03-26T01:22:17.199Z,98.45
2023-03-26T01:24:44.710Z,97.64
2023-03-26T01:27:38.326Z,97.70
2023-03-26T01:30:48.442Z,99.41
2023-03-26T01:33:37.559Z,97.75
2023-03-26T01:36:23.932Z,96.81
2023-03-26T01:39:16.154Z,95.35
2023-03-26T01:41:47.406Z,97.50
2023-03-26T01:44:27.205Z,92.40
2023-03-26T01:46:55.311Z,94.04
2023-03-26T01:49:22.818Z,93.49
2023-03-26T01:51:51.156Z,92.27
2023-03-26T01:54:22.388Z,91.18
2023-03-26T01:57:26.429Z,92.08
2023-03-26T02:00:31.628Z,92.11
2023-03-26T02:03:13.363Z,91.75
2023-03-26T02:05:49.104Z,90.03
2023-03-26T02:08:40.374Z,90.95
2023-03-26T02:11:12.196Z,94.88
2023-03-26T02:13:42.031Z,90.67
2023-03-26T02:16:12.487Z,90.59
2023-03-26T02:18:40.835Z,89.63
2023-03-26T02:21:14.667Z,95.61
2023-03-26T02:23:44.013Z,88.22
2023-03-26T02:26:11.576Z,88.80
2023-03-26T02:28:38.988Z,88.44
2023-03-26T02:31:07.708Z,90.38
2023-03-26T02:33:35.403Z,88.48
2023-03-26T02:36:04.539Z,87.42
2023-03-26T02:38:32.661Z,87.26
2023-03-26T02:41:00.104Z,90.88
2023-03-26T02:43:28.482Z,87.83
2023-03-26T02:45:56.361Z,87.60
2023-03-26T02:48:24.006Z,85.56
2023-03-26T02:50:51.368Z,89.05
2023-03-26T02:53:18.950Z,87.34
2023-03-26T02:55:46.217Z,86.06
2023-03-26T02:58:14.093Z,86.32
2023-03-26T03:00:41.888Z,88.86
2023-03-26T03:03:09.369Z,86.02
2023-03-26T03:05:36.783Z,86.55
2023-03-26T03:08:05.075Z,86.22
2023-03-26T03:10:32.672Z,88.52
2023-03-26T03:13:00.233Z,85.83
2023-03-26T03:15:27.556Z,85.89
2023-03-26T03:17:54.810Z,87.26
2023-03-26T03:20:22.325Z,86.67
2023-03-26T03:22:49.652Z,88.06
2023-03-26T03:25:17.086Z,86.78
2023-03-26T03:27:44.967Z,86.73
2023-03-26T03:30:13.648Z,87.90
2023-03-26T03:32:41.151Z,89.26
2023-03-26T03:35:09.056Z,87.71
2023-03-26T03:37:36.423Z,87.76
2023-03-26T03:40:05.195Z,87.52
2023-03-26T03:42:32.533Z,90.77
2023-03-26T03:45:07.378Z,86.71
2023-03-26T03:47:34.805Z,87.59
2023-03-26T03:50:03.612Z,88.22
2023-03-26T03:52:32.166Z,89.31
2023-03-26T03:55:00.275Z,87.84
2023-03-26T03:57:28.900Z,87.57
2023-03-26T03:59:56.698Z,88.93
2023-03-26T04:02:26.255Z,92.92
2023-03-26T04:04:55.426Z,87.27
2023-03-26T04:07:24.688Z,86.43
2023-03-26T04:09:53.168Z,86.82
2023-03-26T04:12:21.034Z,85.57
2023-03-26T04:14:49.221Z,86.94
2023-03-26T04:17:16.603Z,85.71
2023-03-26T04:19:43.888Z,86.63
2023-03-26T04:22:12.199Z,89.31
2023-03-26T04:24:39.635Z,90.53
2023-03-26T04:27:15.070Z,83.39
2023-03-26T04:29:46.039Z,80.56
2023-03-26T04:32:32.686Z,73.99
2023-03-26T04:35:04.344Z,77.24
2023-03-26T04:37:40.997Z,73.87
2023-03-26T04:40:13.769Z,70.07
2023-03-26T04:42:41.213Z,70.59
2023-03-26T04:45:09.406Z,67.99
2023-03-26T04:47:36.945Z,68.75
2023-03-26T04:50:10.405Z,68.66
2023-03-26T04:52:38.277Z,66.41
2023-03-26T04:55:12.422Z,67.58
2023-03-26T04:57:44.292Z,67.22
2023-03-26T05:00:14.370Z,66.62
2023-03-26T05:02:45.488Z,64.02
2023-03-26T05:05:13.684Z,71.67
2023-03-26T05:07:41.642Z,69.42
2023-03-26T05:10:13.533Z,66.17
2023-03-26T05:12:41.787Z,64.58
2023-03-26T05:15:11.253Z,63.67
2023-03-26T05:17:38.917Z,70.66
2023-03-26T05:20:06.812Z,65.59
2023-03-26T05:22:36.024Z,74.20
2023-03-26T05:25:05.354Z,65.49
2023-03-26T05:27:33.415Z,63.86
2023-03-26T05:30:02.297Z,61.35
2023-03-26T05:32:31.006Z,60.80
2023-03-26T05:34:59.187Z,61.47
2023-03-26T05:37:29.065Z,60.34
2023-03-26T05:39:57.183Z,58.49
2023-03-26T05:42:24.500Z,59.99
2023-03-26T05:44:51.917Z,58.11
2023-03-26T05:47:19.318Z,58.66
2023-03-26T05:49:47.035Z,58.41
2023-03-26T05:52:14.404Z,60.49
2023-03-26T05:54:42.401Z,56.82
2023-03-26T05:57:09.755Z,57.53
2023-03-26T05:59:37.642Z,57.62
2023-03-26T06:02:05.183Z,61.15
2023-03-26T06:04:33.099Z,57.11
2023-03-26T06:07:00.709Z,56.28
2023-03-26T06:09:28.874Z,54.20
2023-03-26T06:11:56.448Z,54.49
2023-03-26T06:14:23.878Z,53.04
2023-03-26T06:16:51.621Z,52.63
2023-03-26T06:19:18.948Z,49.73
2023-03-26T06:21:46.308Z,54.29
2023-03-26T06:24:13.762Z,51.93
2023-03-26T06:26:41.233Z,52.59
2023-03-26T06:29:08.922Z,51.93
2023-03-26T06:31:36.554Z,51.01
2023-03-26T06:34:03.870Z,48.62
2023-03-26T06:36:31.448Z,50.38
2023-03-26T06:38:58.962Z,50.65
2023-03-26T06:41:26.428Z,51.94
2023-03-26T06:43:53.770Z,51.83
2023-03-26T06:46:21.487Z,52.46
2023-03-26T06:48:49.115Z,54.19
2023-03-26T06:51:16.643Z,54.88
2023-03-26T06:53:44.074Z,56.63
2023-03-26T06:56:11.550Z,56.38
2023-03-26T06:58:38.852Z,56.32
2023-03-26T07:01:06.438Z,58.43
2023-03-26T07:03:33.847Z,57.38
2023-03-26T07:06:01.358Z,58.14
2023-03-26T07:08:34.623Z,58.90
2023-03-26T07:11:02.072Z,60.93
2023-03-26T07:13:30.047Z,60.84
2023-03-26T07:15:57.846Z,62.08
2023-03-26T07:18:25.223Z,59.70
2023-03-26T07:20:53.117Z,61.00
2023-03-26T07:23:21.190Z,61.23
2023-03-26T07:25:48.988Z,61.97
2023-03-26T07:28:22.181Z,62.41
2023-03-26T07:31:00.618Z,62.75
2023-03-26T07:33:56.212Z,60.63
2023-03-26T07:36:26.416Z,61.40
2023-03-26T07:39:34.786Z,60.92
2023-03-26T07:42:30.561Z,61.07
2023-03-26T07:44:57.883Z,60.70
2023-03-26T07:47:32.750Z,59.66
2023-03-26T07:50:00.484Z,58.49
2023-03-26T07:52:28.447Z,60.72
2023-03-26T07:54:56.136Z,59.23
2023-03-26T07:57:51.620Z,57.85
2023-03-26T08:00:37.334Z,57.25
2023-03-26T08:03:18.586Z,55.74
2023-03-26T08:06:21.390Z,54.71
2023-03-26T08:08:48.764Z,53.59
2023-03-26T08:11:15.995Z,53.23
2023-03-26T08:13:58.382Z,51.57
2023-03-26T08:16:44.279Z,51.15
2023-03-26T08:19:34.582Z,50.78
2023-03-26T08:22:16.574Z,48.85
2023-03-26T08:25:06.531Z,52.17
2023-03-26T08:27:39.977Z,50.24
2023-03-26T08:30:10.815Z,50.71
2023-03-26T08:32:38.508Z,54.62
2023-03-26T08:35:06.468Z,51.21
2023-03-26T08:37:33.982Z,51.96
2023-03-26T08:40:01.446Z,51.23
2023-03-26T08:43:01.383Z,51.86
2023-03-26T08:45:49.015Z,49.54
2023-03-26T08:48:22.566Z,49.16
2023-03-26T08:51:08.897Z,48.17
2023-03-26T08:54:10.830Z,46.45
2023-03-26T08:57:12.088Z,49.02
2023-03-26T08:59:54.354Z,47.31
2023-03-26T09:02:52.470Z,51.19
2023-03-26T09:05:54.552Z,46.85
2023-03-26T09:08:30.727Z,47.47
2023-03-26T09:11:25.713Z,45.93
2023-03-26T09:14:08.972Z,45.52
2023-03-26T09:16:54.774Z,45.96
2023-03-26T09:19:31.269Z,46.29
2023-03-26T09:22:17.410Z,48.36
2023-03-26T09:25:03.519Z,45.73
2023-03-26T09:27:33.985Z,46.32
2023-03-26T09:30:31.862Z,45.83
2023-03-26T09:33:11.248Z,46.28
2023-03-26T09:35:55.837Z,43.87
2023-03-26T09:38:38.460Z,43.98
2023-03-26T09:41:15.572Z,44.13
2023-03-26T09:44:04.342Z,43.21
2023-03-26T09:46:49.085Z,45.51
2023-03-26T09:49:26.056Z,43.72
2023-03-26T09:52:03.521Z,46.36
2023-03-26T09:54:46.897Z,43.65
2023-03-26T09:57:23.377Z,43.45
2023-03-26T10:00:20.554Z,44.18
2023-03-26T10:03:09.911Z,45.88
2023-03-26T10:05:40.326Z,44.81
2023-03-26T10:08:23.067Z,43.13
2023-03-26T10:10:54.262Z,42.16
2023-03-26T10:13:33.769Z,42.30
2023-03-26T10:16:23.119Z,41.85
2023-03-26T10:19:10.731Z,42.08
2023-03-26T10:21:50.112Z,41.26
2023-03-26T10:24:28.837Z,40.75
2023-03-26T10:27:17.749Z,40.59
2023-03-26T10:30:37.755Z,41.17
2023-03-26T10:33:20.521Z,41.76
2023-03-26T10:35:57.083Z,40.33
2023-03-26T10:38:43.294Z,40.97
2023-03-26T10:41:23.750Z,40.53
2023-03-26T10:44:15.413Z,40.17
2023-03-26T10:46:54.200Z,40.03
2023-03-26T10:50:04.466Z,38.63
2023-03-26T10:52:36.723Z,39.89
2023-03-26T10:55:14.973Z,38.53
2023-03-26T10:57:45.747Z,39.08
2023-03-26T11:00:28.212Z,37.32
2023-03-26T11:03:13.691Z,40.47
2023-03-26T11:06:03.111Z,39.77
2023-03-26T11:08:49.907Z,38.47
2023-03-26T11:11:35.592Z,38.18
2023-03-26T11:14:10.533Z,38.31
2023-03-26T11:17:40.983Z,39.37
2023-03-26T11:20:06.091Z,38.09
2023-03-26T11:22:50.243Z,45.55
2023-03-26T11:25:32.284Z,37.33
2023-03-26T11:28:21.589Z,38.54
2023-03-26T11:31:13.543Z,38.80
2023-03-26T11:33:46.413Z,40.46
2023-03-26T11:36:22.561Z,38.84
2023-03-26T11:38:51.733Z,41.34
2023-03-26T11:41:27.831Z,38.39
2023-03-26T11:44:03.131Z,37.54
2023-03-26T11:46:33.842Z,37.41
2023-03-26T11:49:09.985Z,37.16
2023-03-26T11:51:39.633Z,38.87
2023-03-26T11:54:08.050Z,39.61
2023-03-26T11:57:05.497Z,38.25
2023-03-26T11:59:57.990Z,37.56
2023-03-26T12:02:28.640Z,37.64
2023-03-26T12:05:17.329Z,37.86
2023-03-26T12:08:11.310Z,38.87
2023-03-26T12:10:42.025Z,38.74
2023-03-26T12:13:35.570Z,42.28
2023-03-26T12:16:23.797Z,38.61
2023-03-26T12:19:17.340Z,38.52
2023-03-26T12:21:48.101Z,39.36
2023-03-26T12:24:29.158Z,38.72
2023-03-26T12:27:01.014Z,37.47
2023-03-26T12:29:31.536Z,38.16
2023-03-26T12:32:13.311Z,38.32
2023-03-26T12:34:41.758Z,36.81
2023-03-26T12:37:35.287Z,37.84
2023-03-26T12:40:32.132Z,38.58
2023-03-26T12:44:53.414Z,37.35
2023-03-26T12:47:54.142Z,37.32
2023-03-26T12:48:45.460Z,37.76
2023-03-26T12:51:55.856Z,37.48
2023-03-26T12:54:55.192Z,37.55
2023-03-26T12:57:33.018Z,37.30
2023-03-26T13:00:16.160Z,36.86
2023-03-26T13:03:04.385Z,37.03
2023-03-26T13:06:02.841Z,37.69
2023-03-26T13:08:54.535Z,36.88
2023-03-26T13:11:33.796Z,37.24
2023-03-26T13:14:16.968Z,37.34
2023-03-26T13:16:56.897Z,42.93
2023-03-26T13:19:40.341Z,37.68
2023-03-26T13:22:29.201Z,38.81
2023-03-26T13:25:15.860Z,36.01
2023-03-26T13:28:27.462Z,43.16
2023-03-26T13:31:00.698Z,37.54
2023-03-26T13:33:40.206Z,37.79
2023-03-26T13:36:23.258Z,37.02
2023-03-26T13:39:22.291Z,37.10
2023-03-26T13:42:05.937Z,37.54
2023-03-26T13:44:48.587Z,35.61
2023-03-26T13:47:25.942Z,39.80
2023-03-26T13:50:03.565Z,37.10
2023-03-26T13:52:40.664Z,36.79
2023-03-26T13:55:32.474Z,36.05
2023-03-26T13:58:08.983Z,38.64
2023-03-26T14:00:50.831Z,37.71
2023-03-26T14:03:33.594Z,36.20
2023-03-26T14:06:06.546Z,36.21
2023-03-26T14:08:47.279Z,36.94
2023-03-26T14:11:28.354Z,35.50
2023-03-26T14:14:10.261Z,33.50
2023-03-26T14:16:48.055Z,33.49
2023-03-26T14:19:24.853Z,32.94
2023-03-26T14:21:54.923Z,32.75
2023-03-26T14:24:34.763Z,32.77
2023-03-26T14:27:37.416Z,32.74
2023-03-26T14:30:35.135Z,33.31
2023-03-26T14:33:11.269Z,33.36
2023-03-26T14:35:57.766Z,32.74
2023-03-26T14:38:57.935Z,34.15
2023-03-26T14:41:33.083Z,33.99
2023-03-26T14:44:28.794Z,34.88
2023-03-26T14:47:16.923Z,33.62
2023-03-26T14:50:08.945Z,35.23
2023-03-26T14:52:52.325Z,36.53
2023-03-26T14:56:05.533Z,36.46
2023-03-26T14:58:59.225Z,36.26
2023-03-26T15:01:46.813Z,35.43
2023-03-26T15:04:39.137Z,36.28
2023-03-26T15:07:36.223Z,36.40
2023-03-26T15:10:11.967Z,35.98
2023-03-26T15:13:07.695Z,36.29
2023-03-26T15:15:59.991Z,36.76
2023-03-26T15:18:45.367Z,39.31
2023-03-26T15:21:43.374Z,36.57
2023-03-26T15:24:16.483Z,35.87
2023-03-26T15:27:22.838Z,36.19
2023-03-26T15:30:00.772Z,37.09
2023-03-26T15:32:50.057Z,36.84
2023-03-26T15:35:46.615Z,36.48
2023-03-26T15:38:38.919Z,38.61
2023-03-26T15:41:25.194Z,36.20
2023-03-26T15:44:24.389Z,36.97
2023-03-26T15:47:25.696Z,37.23
2023-03-26T15:50:22.863Z,37.76
2023-03-26T15:53:31.838Z,37.82
2023-03-26T15:56:15.990Z,38.33
2023-03-26T15:58:55.962Z,37.83
2023-03-26T16:01:48.048Z,38.38
2023-03-26T16:04:28.888Z,37.81
2023-03-26T16:07:45.164Z,39.46
2023-03-26T16:10:33.745Z,39.93
2023-03-26T16:13:17.135Z,43.76
2023-03-26T16:16:03.712Z,43.07
2023-03-26T16:18:35.660Z,38.64
2023-03-26T16:21:32.308Z,39.03
2023-03-26T16:24:03.074Z,39.32
2023-03-26T16:26:46.388Z,39.99
2023-03-26T16:29:13.780Z,41.24
2023-03-26T16:31:59.741Z,40.39
2023-03-26T16:34:37.725Z,41.29
2023-03-26T16:37:26.071Z,41.14
2023-03-26T16:39:54.082Z,41.98
2023-03-26T16:42:39.840Z,41.85
2023-03-26T16:45:32.784Z,40.79
2023-03-26T16:48:25.721Z,44.60
2023-03-26T16:50:57.637Z,42.27
2023-03-26T16:53:59.764Z,45.29
2023-03-26T16:56:37.319Z,47.25
2023-03-26T16:59:09.153Z,43.99
2023-03-26T17:01:47.438Z,40.26
2023-03-26T17:04:19.528Z,42.14
2023-03-26T17:07:14.568Z,43.05
2023-03-26T17:09:59.274Z,41.86
2023-03-26T17:12:44.297Z,42.95
2023-03-26T17:15:30.442Z,43.14
2023-03-26T17:18:25.290Z,42.45
2023-03-26T17:20:58.703Z,43.21
2023-03-26T17:23:47.177Z,43.79
2023-03-26T17:26:31.222Z,43.43
2023-03-26T17:29:13.991Z,43.73
2023-03-26T17:32:02.060Z,44.49
2023-03-26T17:34:33.954Z,44.87
2023-03-26T17:37:04.252Z,45.58
2023-03-26T17:39:40.712Z,46.50
2023-03-26T17:42:22.488Z,45.29
2023-03-26T17:44:51.681Z,45.99
2023-03-26T17:47:37.329Z,47.09
2023-03-26T17:50:27.585Z,47.47
2023-03-26T17:53:01.128Z,47.07
2023-03-26T17:55:36.354Z,47.80
2023-03-26T17:58:07.646Z,47.69
2023-03-26T18:00:49.636Z,47.39
2023-03-26T18:03:31.047Z,46.71
2023-03-26T18:06:08.377Z,46.39
2023-03-26T18:09:14.583Z,46.64
2023-03-26T18:12:00.723Z,46.85
2023-03-26T18:14:53.658Z,46.84
2023-03-26T18:17:21.377Z,46.45
2023-03-26T18:19:53.979Z,46.70
2023-03-26T18:22:28.408Z,46.99
2023-03-26T18:25:01.064Z,46.90
2023-03-26T18:27:40.641Z,47.18
2023-03-26T18:30:15.898Z,47.54
2023-03-26T18:33:01.578Z,48.62
2023-03-26T18:35:49.772Z,48.49
2023-03-26T18:38:34.983Z,48.38
2023-03-26T18:41:09.741Z,48.26
2023-03-26T18:43:44.410Z,49.42
2023-03-26T18:46:17.783Z,49.47
2023-03-26T18:48:46.649Z,49.91
2023-03-26T18:51:14.209Z,51.36
2023-03-26T18:53:52.086Z,50.50
2023-03-26T18:56:35.863Z,49.83
2023-03-26T18:59:06.928Z,49.88
2023-03-26T19:01:37.329Z,49.56
2023-03-26T19:04:06.967Z,51.14
2023-03-26T19:06:38.453Z,50.29
2023-03-26T19:09:19.584Z,51.02
2023-03-26T19:11:57.311Z,51.10
2023-03-26T19:14:25.179Z,52.13
2023-03-26T19:17:00.450Z,52.66
2023-03-26T19:19:35.684Z,52.14
2023-03-26T19:22:07.454Z,52.83
2023-03-26T19:24:35.133Z,55.25
2023-03-26T19:27:03.433Z,55.15
2023-03-26T19:29:36.005Z,53.11
2023-03-26T19:32:21.640Z,53.14
2023-03-26T19:34:49.477Z,53.77
2023-03-26T19:37:19.001Z,54.17
2023-03-26T19:39:50.210Z,54.47
2023-03-26T19:42:20.211Z,54.27
2023-03-26T19:44:48.046Z,54.73
2023-03-26T19:47:25.001Z,55.38
2023-03-26T19:50:27.415Z,55.05
2023-03-26T19:53:29.880Z,54.79
2023-03-26T19:56:16.570Z,55.33
2023-03-26T19:58:44.188Z,55.24
2023-03-26T20:01:30.826Z,56.16
2023-03-26T20:04:02.081Z,56.22
2023-03-26T20:06:41.715Z,57.21
2023-03-26T20:09:12.558Z,57.91
2023-03-26T20:11:40.222Z,58.37
2023-03-26T20:14:18.917Z,58.23
2023-03-26T20:16:46.419Z,58.45
2023-03-26T20:19:15.490Z,57.72
2023-03-26T20:21:44.567Z,57.35
2023-03-26T20:24:15.042Z,57.33
2023-03-26T20:26:43.993Z,58.07
2023-03-26T20:29:15.236Z,56.52
2023-03-26T20:31:43.300Z,56.81
2023-03-26T20:34:20.421Z,57.40
2023-03-26T20:36:48.719Z,57.20
2023-03-26T20:39:16.164Z,56.74
2023-03-26T20:41:48.808Z,56.74
2023-03-26T20:44:19.902Z,56.59
2023-03-26T20:46:48.774Z,56.67
2023-03-26T20:49:16.250Z,57.37
2023-03-26T20:51:43.993Z,57.66
2023-03-26T20:54:20.599Z,58.32
2023-03-26T20:56:49.419Z,59.90
2023-03-26T20:59:20.465Z,60.32
2023-03-26T21:01:50.957Z,60.12
2023-03-26T21:04:28.927Z,59.27
2023-03-26T21:07:07.176Z,59.11
2023-03-26T21:09:43.043Z,59.97
2023-03-26T21:12:27.788Z,61.89
2023-03-26T21:14:55.832Z,60.52
2023-03-26T21:17:23.984Z,60.59
2023-03-26T21:19:55.138Z,60.26
2023-03-26T21:23:03.808Z,60.54
2023-03-26T21:25:48.218Z,60.94
2023-03-26T21:28:41.996Z,61.35
2023-03-26T21:31:16.404Z,63.25
2023-03-26T21:33:44.659Z,62.96
2023-03-26T21:36:12.494Z,62.76
2023-03-26T21:38:40.956Z,64.97
2023-03-26T21:41:24.922Z,65.33
2023-03-26T21:43:52.325Z,67.02
2023-03-26T21:46:19.991Z,67.51
2023-03-26T21:48:47.630Z,67.58
2023-03-26T21:51:15.908Z,68.14
2023-03-26T21:53:43.469Z,68.12
2023-03-26T21:56:41.604Z,69.06
2023-03-26T21:59:16.889Z,69.61
2023-03-26T22:02:22.642Z,68.01
2023-03-26T22:05:15.080Z,68.22
2023-03-26T22:07:58.678Z,69.82
2023-03-26T22:10:29.167Z,70.24
2023-03-26T22:12:59.069Z,69.53
2023-03-26T22:15:26.548Z,67.86
2023-03-26T22:17:54.307Z,66.80
2023-03-26T22:20:23.605Z,67.94
2023-03-26T22:22:51.155Z,68.22
2023-03-26T22:25:20.352Z,68.57
2023-03-26T22:27:50.628Z,69.28
2023-03-26T22:30:18.763Z,70.48
2023-03-26T22:32:46.711Z,68.03
2023-03-26T22:35:14.285Z,68.12
2023-03-26T22:37:41.998Z,68.15
2023-03-26T22:40:09.934Z,68.64
2023-03-26T22:42:39.695Z,68.75
2023-03-26T22:45:11.016Z,68.87
2023-03-26T22:47:41.299Z,66.94
2023-03-26T22:50:09.410Z,66.93
2023-03-26T22:52:37.565Z,64.17
2023-03-26T22:55:05.212Z,63.70
2023-03-26T22:57:32.970Z,60.82
2023-03-26T23:00:00.350Z,62.98
2023-03-26T23:02:27.828Z,61.57
2023-03-26T23:04:55.183Z,62.40
2023-03-26T23:07:22.596Z,62.23
2023-03-26T23:09:50.048Z,63.39
2023-03-26T23:12:17.307Z,61.18
2023-03-26T23:14:44.729Z,60.79
2023-03-26T23:17:12.212Z,60.27
2023-03-26T23:19:39.490Z,62.19
2023-03-26T23:22:06.888Z,60.33
2023-03-26T23:24:34.511Z,59.78
2023-03-26T23:27:01.980Z,60.29
2023-03-26T23:29:29.286Z,63.99
2023-03-26T23:31:56.567Z,61.83
2023-03-26T23:34:25.885Z,62.94
2023-03-26T23:36:53.215Z,62.77
2023-03-26T23:39:21.013Z,63.65
2023-03-26T23:41:48.538Z,62.69
2023-03-26T23:44:16.051Z,61.68
2023-03-26T23:46:43.381Z,60.96
2023-03-26T23:49:10.939Z,61.02
2023-03-26T23:51:38.279Z,60.09
2023-03-26T23:54:05.690Z,59.35
2023-03-26T23:56:33.584Z,58.51
2023-03-26T23:59:00.976Z,57.58
